Time;durP1;ratioP1;P1;durP2;ratioP2;P2;SDS_P1;SDS_P2;PMS_P1;PMS_P2;Temp;Humidity;BMP_temperature;BMP_pressure;BME280_temperature;BME280_humidity;BME280_pressure;Samples;Min_cycle;Max_cycle;Signal;HPM_P1;HPM_P2
2022/07/30 00:00:06;;;;;;;11.98;9.93;;;16.40;99.90;;;;;;7395014;19;20015;-85
2022/07/30 00:02:32;;;;;;;11.40;9.35;;;16.50;99.90;;;;;;7397277;19;20010;-85
2022/07/30 00:04:58;;;;;;;12.43;9.65;;;16.50;99.90;;;;;;7392149;19;20069;-86
2022/07/30 00:07:26;;;;;;;13.02;9.90;;;16.50;99.90;;;;;;7395646;19;20485;-85
2022/07/30 00:09:52;;;;;;;12.30;9.38;;;16.50;99.90;;;;;;7394510;19;20019;-84
2022/07/30 00:12:18;;;;;;;12.50;10.02;;;16.50;99.90;;;;;;7394851;19;20054;-85
2022/07/30 00:14:44;;;;;;;13.77;9.70;;;16.50;99.90;;;;;;7397152;19;20019;-86
2022/07/30 00:17:09;;;;;;;13.07;9.90;;;16.50;99.90;;;;;;7393400;19;20011;-85
2022/07/30 00:19:35;;;;;;;13.02;9.75;;;16.50;99.90;;;;;;7393690;19;20027;-86
2022/07/30 00:22:02;;;;;;;14.02;10.23;;;16.60;99.90;;;;;;7395551;19;20505;-86
2022/07/30 00:24:30;;;;;;;14.63;9.73;;;16.60;99.90;;;;;;7390776;19;20018;-86
2022/07/30 00:26:56;;;;;;;13.93;9.88;;;16.60;99.90;;;;;;7394485;19;20016;-85
2022/07/30 00:29:22;;;;;;;14.18;9.77;;;16.60;99.90;;;;;;7396654;19;20014;-85
2022/07/30 00:31:48;;;;;;;13.00;10.20;;;16.60;99.90;;;;;;7393883;19;20019;-85
2022/07/30 00:34:17;;;;;;;12.63;10.13;;;16.60;99.90;;;;;;7394070;19;20039;-85
2022/07/30 00:36:42;;;;;;;12.50;10.15;;;16.50;99.90;;;;;;7393492;19;20014;-85
2022/07/30 00:39:11;;;;;;;12.18;10.10;;;16.50;99.90;;;;;;7390356;19;20045;-85
2022/07/30 00:41:58;;;;;;;12.57;9.18;;;16.40;99.90;;;;;;7395403;19;20011;-86
2022/07/30 00:44:25;;;;;;;11.27;8.95;;;16.40;99.90;;;;;;7391093;19;20078;-85
2022/07/30 00:46:51;;;;;;;13.00;10.00;;;16.40;99.90;;;;;;7395825;19;20022;-85
2022/07/30 00:49:17;;;;;;;13.90;9.57;;;16.30;99.90;;;;;;7394884;19;20503;-85
2022/07/30 00:51:43;;;;;;;12.98;10.18;;;16.30;99.90;;;;;;7393260;19;20011;-84
2022/07/30 00:54:12;;;;;;;12.00;9.05;;;16.30;99.90;;;;;;7391836;19;20011;-85
2022/07/30 00:56:42;;;;;;;14.13;9.32;;;16.20;99.90;;;;;;7393578;19;20038;-86
2022/07/30 00:59:08;;;;;;;15.02;10.13;;;16.20;99.90;;;;;;7390636;19;20025;-86
2022/07/30 01:01:34;;;;;;;12.07;9.32;;;16.20;99.90;;;;;;7393990;19;20487;-86
2022/07/30 01:04:01;;;;;;;12.18;9.35;;;16.20;99.90;;;;;;7390113;19;20031;-85
2022/07/30 01:06:27;;;;;;;10.55;9.43;;;16.20;99.90;;;;;;7393807;19;20015;-85
2022/07/30 01:08:53;;;;;;;13.20;10.57;;;16.20;99.90;;;;;;7392632;19;20360;-85
2022/07/30 01:11:21;;;;;;;11.80;9.48;;;16.10;99.90;;;;;;7394904;19;20372;-86
2022/07/30 01:13:47;;;;;;;11.75;9.27;;;16.10;99.90;;;;;;7391206;19;20006;-86
2022/07/30 01:16:13;;;;;;;10.25;9.10;;;16.00;99.90;;;;;;7394906;19;20018;-86
2022/07/30 01:21:38;;;;;;;12.40;9.27;;;16.00;99.90;;;;;;7394479;19;20015;-85
2022/07/30 01:24:29;;;;;;;14.98;9.20;;;15.90;99.90;;;;;;7390451;19;20047;-85
2022/07/30 01:26:56;;;;;;;8.90;7.93;;;15.90;99.90;;;;;;7393407;19;20082;-84
2022/07/30 01:29:24;;;;;;;11.73;8.45;;;15.80;99.90;;;;;;7396554;19;20440;-85
2022/07/30 01:31:54;;;;;;;10.65;7.72;;;15.80;99.90;;;;;;7394918;19;20388;-86
2022/07/30 01:34:21;;;;;;;10.88;8.50;;;15.80;99.90;;;;;;7394863;19;20018;-85
2022/07/30 01:36:48;;;;;;;11.98;7.88;;;15.80;99.90;;;;;;7391587;19;20337;-86
2022/07/30 01:39:18;;;;;;;9.13;7.97;;;15.70;99.90;;;;;;7392721;19;20475;-85
2022/07/30 01:41:46;;;;;;;10.82;8.77;;;15.70;99.90;;;;;;7394217;19;20026;-85
2022/07/30 01:44:15;;;;;;;9.55;8.55;;;15.60;99.90;;;;;;7392240;19;20381;-85
2022/07/30 01:46:41;;;;;;;10.23;9.07;;;15.60;99.90;;;;;;7393683;19;20026;-85
2022/07/30 01:49:09;;;;;;;9.75;8.75;;;15.50;99.90;;;;;;7394488;19;20039;-84
2022/07/30 01:51:37;;;;;;;10.23;8.23;;;15.50;99.90;;;;;;7393986;19;20022;-85
2022/07/30 01:54:07;;;;;;;10.25;9.07;;;15.40;99.90;;;;;;7391603;19;20082;-85
2022/07/30 01:56:36;;;;;;;11.93;9.05;;;15.50;99.90;;;;;;7391788;19;20350;-85
2022/07/30 01:59:06;;;;;;;10.70;8.85;;;15.40;99.90;;;;;;7393959;19;20031;-85
2022/07/30 02:01:32;;;;;;;10.00;9.07;;;15.40;99.90;;;;;;7392507;19;20492;-85
2022/07/30 02:04:01;;;;;;;11.55;10.35;;;15.40;99.90;;;;;;7388655;19;20027;-86
2022/07/30 02:06:41;;;;;;;11.38;9.70;;;15.30;99.90;;;;;;7390612;19;20043;-85
2022/07/30 02:09:08;;;;;;;14.95;9.68;;;15.30;99.90;;;;;;7391279;19;20018;-86
2022/07/30 02:14:37;;;;;;;11.50;9.88;;;15.20;99.90;;;;;;7401680;19;20015;-85
2022/07/30 02:17:06;;;;;;;12.88;10.27;;;15.20;99.90;;;;;;7400851;19;20043;-85
2022/07/30 02:19:36;;;;;;;10.63;8.63;;;15.20;99.90;;;;;;7399597;19;20015;-85
2022/07/30 02:22:05;;;;;;;10.75;8.90;;;15.30;99.90;;;;;;7401704;19;20018;-85
2022/07/30 02:24:33;;;;;;;10.93;8.52;;;15.30;99.90;;;;;;7396068;19;20018;-85
2022/07/30 02:27:15;;;;;;;9.18;8.10;;;15.30;99.90;;;;;;7400942;19;20018;-86
2022/07/30 02:29:43;;;;;;;9.60;8.60;;;15.40;99.90;;;;;;7400346;19;20396;-86
2022/07/30 02:32:13;;;;;;;8.90;8.00;;;15.40;99.90;;;;;;7400092;19;20066;-85
2022/07/30 02:34:42;;;;;;;10.05;8.50;;;15.40;99.90;;;;;;7400144;19;20018;-85
2022/07/30 02:37:11;;;;;;;11.95;9.38;;;15.30;99.90;;;;;;7398074;19;20479;-85
2022/07/30 02:39:38;;;;;;;11.35;10.15;;;15.30;99.90;;;;;;7399714;19;20047;-85
2022/07/30 02:42:06;;;;;;;10.95;9.85;;;15.30;99.90;;;;;;7397782;19;20018;-84
2022/07/30 02:44:36;;;;;;;11.70;10.00;;;15.20;99.90;;;;;;7396932;19;20021;-85
2022/07/30 02:47:03;;;;;;;13.77;10.43;;;15.30;99.90;;;;;;7398714;19;20496;-84
2022/07/30 02:49:31;;;;;;;12.63;10.77;;;15.20;99.90;;;;;;7399596;19;20376;-84
2022/07/30 02:52:00;;;;;;;13.25;10.13;;;15.20;99.90;;;;;;7401301;19;20018;-85
2022/07/30 02:54:29;;;;;;;14.55;10.82;;;15.20;99.90;;;;;;7399561;19;20023;-86
2022/07/30 02:56:58;;;;;;;12.48;11.10;;;15.20;99.90;;;;;;7398116;19;20018;-85
2022/07/30 02:59:27;;;;;;;14.13;10.65;;;15.20;99.90;;;;;;7399827;19;20418;-86
2022/07/30 03:01:54;;;;;;;12.10;9.85;;;15.20;99.90;;;;;;7397613;19;20014;-83
2022/07/30 03:04:20;;;;;;;13.57;10.77;;;15.20;99.90;;;;;;7394934;19;20360;-85
2022/07/30 03:06:48;;;;;;;11.52;10.32;;;15.20;99.90;;;;;;7396763;19;20038;-86
2022/07/30 03:09:16;;;;;;;11.40;9.50;;;15.20;99.90;;;;;;7396890;19;20018;-85
2022/07/30 03:11:42;;;;;;;8.27;7.25;;;15.10;99.90;;;;;;7396594;19;20017;-86
2022/07/30 03:14:10;;;;;;;10.98;8.60;;;15.20;99.90;;;;;;7396583;19;20018;-86
2022/07/30 03:16:37;;;;;;;10.73;9.45;;;15.20;99.90;;;;;;7401152;19;20017;-85
2022/07/30 03:19:06;;;;;;;11.88;8.75;;;15.20;99.90;;;;;;7396169;19;20023;-85
2022/07/30 03:21:35;;;;;;;14.27;10.10;;;15.20;99.90;;;;;;7395187;19;20025;-86
2022/07/30 03:24:03;;;;;;;11.45;10.25;;;15.10;99.90;;;;;;7396289;19;20010;-84
2022/07/30 03:26:30;;;;;;;10.98;9.75;;;15.00;99.90;;;;;;7398488;19;20015;-85
2022/07/30 03:28:56;;;;;;;14.52;11.20;;;15.00;99.90;;;;;;7399821;19;20018;-86
2022/07/30 03:31:22;;;;;;;13.25;11.95;;;14.90;99.90;;;;;;7396693;19;20015;-86
2022/07/30 03:33:49;;;;;;;13.60;11.40;;;14.90;99.90;;;;;;7397262;19;20360;-85
2022/07/30 03:36:16;;;;;;;13.38;11.98;;;14.90;99.90;;;;;;7396467;19;20007;-85
2022/07/30 03:38:43;;;;;;;15.57;11.43;;;14.90;99.90;;;;;;7397605;19;20040;-85
2022/07/30 03:41:10;;;;;;;16.27;13.32;;;14.90;99.90;;;;;;7397677;19;20022;-85
2022/07/30 03:43:38;;;;;;;15.05;13.52;;;14.90;99.90;;;;;;7393575;19;20010;-85
2022/07/30 03:46:08;;;;;;;14.23;12.55;;;14.80;99.90;;;;;;7395750;19;20019;-85
2022/07/30 03:48:35;;;;;;;14.13;12.63;;;14.80;99.90;;;;;;7396010;19;20015;-85
2022/07/30 03:51:08;;;;;;;16.98;13.82;;;14.80;99.90;;;;;;7394420;19;20014;-86
2022/07/30 03:53:35;;;;;;;17.58;14.90;;;14.80;99.90;;;;;;7397134;19;20479;-86
2022/07/30 03:56:02;;;;;;;16.27;14.60;;;14.80;99.90;;;;;;7394745;19;20479;-85
2022/07/30 03:58:29;;;;;;;16.63;14.43;;;14.80;99.90;;;;;;7395968;19;20074;-85
2022/07/30 04:00:56;;;;;;;14.70;13.20;;;14.80;99.90;;;;;;7393568;19;20422;-85
2022/07/30 04:03:31;;;;;;;16.10;12.45;;;14.80;99.90;;;;;;7395217;19;20018;-85
2022/07/30 04:06:00;;;;;;;13.95;12.45;;;14.80;99.90;;;;;;7395055;19;20029;-85
2022/07/30 04:08:27;;;;;;;13.60;10.75;;;14.80;99.90;;;;;;7394033;19;20014;-86
2022/07/30 04:10:53;;;;;;;16.35;14.25;;;14.90;99.90;;;;;;7398791;19;20360;-85
2022/07/30 04:13:19;;;;;;;15.95;13.82;;;15.00;99.90;;;;;;7393175;19;20431;-85
2022/07/30 04:16:04;;;;;;;15.20;13.57;;;15.00;99.90;;;;;;7394766;19;20018;-84
2022/07/30 04:18:36;;;;;;;11.88;9.75;;;15.00;99.90;;;;;;7395062;19;20471;-86
2022/07/30 04:21:06;;;;;;;11.73;10.63;;;15.00;99.90;;;;;;7393752;19;20025;-86
2022/07/30 04:23:32;;;;;;;12.18;10.98;;;15.10;99.90;;;;;;7393519;19;20070;-87
2022/07/30 04:26:00;;;;;;;17.45;13.93;;;15.10;99.90;;;;;;7395858;19;20025;-86
2022/07/30 04:28:28;;;;;;;15.32;12.48;;;15.10;99.90;;;;;;7391970;19;20010;-86
2022/07/30 04:30:55;;;;;;;17.90;13.55;;;15.10;99.90;;;;;;7396739;19;20391;-86
2022/07/30 04:33:21;;;;;;;14.25;11.63;;;15.00;99.90;;;;;;7397197;19;20181;-86
2022/07/30 04:35:47;;;;;;;13.68;11.20;;;15.10;99.90;;;;;;7396018;19;20011;-86
2022/07/30 04:38:13;;;;;;;13.05;11.75;;;15.20;99.90;;;;;;7390738;19;20128;-87
2022/07/30 04:40:39;;;;;;;11.43;9.35;;;15.30;99.90;;;;;;7397351;19;20010;-86
2022/07/30 04:43:06;;;;;;;15.27;13.68;;;15.50;99.90;;;;;;7392363;19;20018;-86
2022/07/30 04:45:32;;;;;;;13.40;12.00;;;15.60;99.90;;;;;;7394217;19;20011;-85
2022/07/30 04:47:58;;;;;;;14.32;12.90;;;15.60;99.90;;;;;;7393653;19;20519;-86
2022/07/30 04:50:26;;;;;;;18.35;15.80;;;15.70;99.90;;;;;;7393880;19;20010;-86
2022/07/30 04:52:56;;;;;;;12.95;11.57;;;15.70;99.90;;;;;;7394991;19;20015;-86
2022/07/30 04:55:24;;;;;;;12.73;11.30;;;15.80;99.90;;;;;;7390932;19;20006;-86
2022/07/30 04:57:51;;;;;;;17.60;15.32;;;15.80;99.90;;;;;;7395405;19;20014;-86
2022/07/30 05:00:17;;;;;;;11.93;10.68;;;15.90;99.90;;;;;;7393435;19;20362;-86
2022/07/30 05:02:47;;;;;;;12.73;11.50;;;15.90;99.90;;;;;;7392831;19;20094;-86
2022/07/30 05:05:14;;;;;;;18.80;14.07;;;16.00;99.90;;;;;;7393304;19;20011;-87
2022/07/30 05:07:42;;;;;;;21.13;17.83;;;16.00;99.90;;;;;;7393373;19;20366;-87
2022/07/30 05:10:09;;;;;;;19.05;17.00;;;16.00;99.90;;;;;;7395377;19;20345;-87
2022/07/30 05:12:36;;;;;;;17.63;15.82;;;15.90;99.90;;;;;;7393412;19;20029;-87
2022/07/30 05:15:05;;;;;;;15.15;13.55;;;15.90;99.90;;;;;;7389853;19;20015;-85
2022/07/30 05:17:35;;;;;;;20.33;17.05;;;16.00;99.90;;;;;;7393502;19;20081;-84
2022/07/30 05:20:01;;;;;;;26.92;19.60;;;16.20;99.90;;;;;;7390660;19;20018;-84
2022/07/30 05:22:29;;;;;;;21.30;19.08;;;16.20;99.90;;;;;;7393982;19;20078;-87
2022/07/30 05:24:55;;;;;;;23.30;20.13;;;16.40;99.90;;;;;;7387726;19;20022;-80
2022/07/30 05:27:21;;;;;;;25.13;20.52;;;16.30;99.90;;;;;;7394606;19;20035;-80
2022/07/30 05:29:47;;;;;;;24.15;20.67;;;16.30;99.90;;;;;;7387737;19;20018;-81
2022/07/30 05:32:13;;;;;;;12.25;6.10;;;16.40;99.90;;;;;;7395546;19;20018;-79
2022/07/30 05:34:39;;;;;;;15.95;7.93;;;16.30;99.90;;;;;;7394186;19;20029;-80
2022/07/30 05:37:05;;;;;;;22.85;19.00;;;16.50;99.90;;;;;;7391568;19;20023;-80
2022/07/30 05:39:31;;;;;;;23.38;18.77;;;16.70;99.90;;;;;;7393922;19;20029;-80
2022/07/30 05:41:57;;;;;;;24.00;18.70;;;16.80;99.90;;;;;;7390709;19;20086;-80
2022/07/30 05:44:26;;;;;;;16.95;13.63;;;16.70;99.90;;;;;;7390718;19;20090;-83
2022/07/30 05:46:52;;;;;;;22.67;19.10;;;16.70;99.90;;;;;;7401580;19;20014;-81
2022/07/30 05:49:18;;;;;;;20.27;18.00;;;16.70;99.90;;;;;;7399292;19;20511;-83
2022/07/30 05:51:45;;;;;;;22.90;19.50;;;16.80;99.90;;;;;;7402528;19;20014;-83
2022/07/30 05:54:11;;;;;;;15.73;9.43;;;16.80;99.90;;;;;;7400319;19;20457;-82
2022/07/30 05:56:39;;;;;;;17.55;12.50;;;17.00;99.90;;;;;;7399095;19;20010;-85
2022/07/30 05:59:05;;;;;;;22.58;18.80;;;17.10;99.90;;;;;;7402130;19;20014;-83
2022/07/30 06:01:31;;;;;;;20.83;18.65;;;17.20;99.90;;;;;;7397632;19;20035;-82
2022/07/30 06:03:58;;;;;;;11.68;7.25;;;17.20;99.90;;;;;;7397741;19;20018;-83
2022/07/30 06:06:27;;;;;;;22.33;16.85;;;17.20;99.90;;;;;;7399779;19;20018;-82
2022/07/30 06:08:53;;;;;;;13.20;7.88;;;17.30;99.90;;;;;;7399816;19;20015;-82
2022/07/30 06:11:19;;;;;;;17.98;16.08;;;17.40;99.90;;;;;;7397433;19;20018;-84
2022/07/30 06:13:45;;;;;;;16.05;11.55;;;17.80;99.90;;;;;;7402335;19;20026;-80
2022/07/30 06:16:10;;;;;;;8.20;5.32;;;18.10;99.90;;;;;;7397293;19;20487;-80
2022/07/30 06:18:36;;;;;;;13.90;5.70;;;18.70;99.90;;;;;;7403005;19;20018;-80
2022/07/30 06:21:02;;;;;;;16.45;13.15;;;19.20;99.90;;;;;;7394989;19;20018;-79
2022/07/30 06:23:28;;;;;;;17.00;13.25;;;19.20;99.90;;;;;;7395716;19;20006;-80
2022/07/30 06:25:54;;;;;;;13.00;10.68;;;19.10;99.90;;;;;;7398181;19;20011;-79
2022/07/30 06:28:20;;;;;;;8.57;6.72;;;19.00;99.90;;;;;;7398085;19;20025;-80
2022/07/30 06:30:47;;;;;;;17.55;13.25;;;18.90;99.90;;;;;;7402759;19;20029;-80
2022/07/30 06:33:14;;;;;;;17.95;13.05;;;18.80;99.90;;;;;;7397849;19;20014;-83
2022/07/30 06:35:40;;;;;;;14.77;10.52;;;18.80;99.90;;;;;;7401263;19;20486;-84
2022/07/30 06:38:06;;;;;;;8.98;5.65;;;18.90;99.90;;;;;;7401614;19;20078;-83
2022/07/30 06:40:32;;;;;;;6.80;5.15;;;19.40;99.90;;;;;;7396893;19;20396;-84
2022/07/30 06:42:58;;;;;;;7.75;4.53;;;19.60;99.90;;;;;;7395139;19;20043;-83
2022/07/30 06:45:24;;;;;;;11.82;7.55;;;19.60;99.90;;;;;;7397657;19;20014;-83
2022/07/30 06:47:50;;;;;;;10.85;6.97;;;19.90;99.90;;;;;;7397319;19;20018;-83
2022/07/30 06:50:17;;;;;;;14.65;11.00;;;19.90;99.90;;;;;;7396277;19;20503;-82
2022/07/30 06:52:43;;;;;;;5.80;3.70;;;19.80;99.90;;;;;;7395986;19;20070;-83
2022/07/30 06:55:09;;;;;;;14.35;10.85;;;19.90;99.90;;;;;;7395214;19;20018;-83
2022/07/30 06:57:35;;;;;;;9.75;5.43;;;20.20;99.90;;;;;;7397330;19;20010;-83
2022/07/30 07:00:01;;;;;;;10.73;5.00;;;20.40;99.90;;;;;;7395737;19;20014;-84
2022/07/30 07:02:27;;;;;;;7.93;5.55;;;20.70;99.90;;;;;;7396772;19;20007;-83
2022/07/30 07:04:54;;;;;;;7.47;5.47;;;21.50;99.90;;;;;;7394985;19;20032;-83
2022/07/30 07:07:19;;;;;;;11.48;6.63;;;21.80;99.90;;;;;;7396940;19;20014;-83
2022/07/30 07:09:45;;;;;;;11.95;7.57;;;22.10;99.90;;;;;;7397089;19;20026;-84
2022/07/30 07:12:11;;;;;;;5.22;3.58;;;22.70;99.90;;;;;;7395387;19;20011;-83
2022/07/30 07:14:37;;;;;;;4.22;3.38;;;23.10;99.90;;;;;;7396982;19;20074;-83
2022/07/30 07:17:03;;;;;;;10.85;5.80;;;23.40;99.90;;;;;;7394813;19;20042;-83
2022/07/30 07:19:29;;;;;;;8.00;4.72;;;23.20;99.90;;;;;;7394156;19;20021;-84
2022/07/30 07:21:55;;;;;;;11.18;8.20;;;23.30;99.90;;;;;;7396585;19;20385;-84
2022/07/30 07:24:21;;;;;;;10.30;5.50;;;24.20;99.90;;;;;;7393364;19;20014;-82
2022/07/30 07:26:47;;;;;;;4.38;3.17;;;24.90;99.90;;;;;;7396188;19;20026;-84
2022/07/30 07:29:13;;;;;;;9.95;7.60;;;25.60;99.90;;;;;;7396322;19;20017;-84
2022/07/30 07:31:39;;;;;;;12.73;7.63;;;26.00;99.90;;;;;;7396169;19;20011;-83
2022/07/30 07:34:05;;;;;;;10.98;8.27;;;26.50;99.90;;;;;;7396451;19;20074;-84
2022/07/30 07:36:33;;;;;;;9.27;5.53;;;27.00;99.90;;;;;;7398115;19;20021;-85
2022/07/30 07:38:59;;;;;;;3.15;2.63;;;27.00;99.90;;;;;;7395998;19;20495;-83
2022/07/30 07:41:25;;;;;;;6.13;4.40;;;27.30;99.90;;;;;;7394925;19;20011;-84
2022/07/30 07:43:50;;;;;;;6.80;3.80;;;27.20;99.90;;;;;;7392516;19;20010;-84
2022/07/30 07:46:16;;;;;;;6.53;3.83;;;27.00;99.90;;;;;;7394393;19;20014;-84
2022/07/30 07:48:43;;;;;;;4.22;3.10;;;26.90;99.90;;;;;;7394390;19;20011;-84
2022/07/30 07:51:09;;;;;;;3.88;2.80;;;27.00;99.90;;;;;;7395829;19;20010;-83
2022/07/30 07:53:35;;;;;;;10.23;6.22;;;26.90;99.90;;;;;;7393803;19;20018;-84
2022/07/30 07:56:01;;;;;;;7.90;4.60;;;27.10;99.90;;;;;;7395052;19;20014;-83
2022/07/30 07:58:27;;;;;;;5.03;3.80;;;27.30;99.90;;;;;;7393778;19;20011;-83
2022/07/30 08:00:53;;;;;;;4.00;3.17;;;27.40;99.80;;;;;;7395297;19;20078;-84
2022/07/30 08:03:19;;;;;;;9.93;5.07;;;27.50;99.40;;;;;;7393193;19;20006;-84
2022/07/30 08:05:46;;;;;;;4.88;2.97;;;27.50;99.40;;;;;;7395552;19;20019;-84
2022/07/30 08:08:12;;;;;;;4.85;3.05;;;27.30;99.20;;;;;;7392384;19;20007;-85
2022/07/30 08:10:38;;;;;;;6.30;4.30;;;26.90;99.60;;;;;;7395106;19;20492;-83
2022/07/30 08:13:04;;;;;;;14.23;8.18;;;26.80;99.80;;;;;;7394838;19;20487;-83
2022/07/30 08:15:30;;;;;;;6.35;4.57;;;26.80;99.90;;;;;;7394426;19;20014;-85
2022/07/30 08:17:56;;;;;;;15.18;7.53;;;26.90;99.70;;;;;;7393203;19;20014;-84
2022/07/30 08:20:23;;;;;;;12.48;8.05;;;26.90;99.90;;;;;;7392512;19;20047;-84
2022/07/30 08:22:50;;;;;;;4.30;3.25;;;27.20;99.90;;;;;;7394057;19;20034;-84
2022/07/30 08:25:16;;;;;;;10.07;6.95;;;27.00;99.20;;;;;;7393957;19;20487;-84
2022/07/30 08:27:45;;;;;;;6.90;4.18;;;26.90;99.30;;;;;;7394544;19;20003;-85
2022/07/30 08:30:11;;;;;;;6.28;4.15;;;26.80;99.40;;;;;;7394208;19;20006;-84
2022/07/30 08:32:37;;;;;;;8.85;5.43;;;26.50;99.70;;;;;;7394189;19;20017;-84
2022/07/30 08:35:04;;;;;;;5.38;3.50;;;26.20;99.60;;;;;;7393754;19;20014;-83
2022/07/30 08:37:30;;;;;;;3.95;2.63;;;26.30;99.80;;;;;;7394151;19;20011;-84
2022/07/30 08:39:56;;;;;;;4.68;2.92;;;26.30;99.70;;;;;;7393946;19;20392;-84
2022/07/30 08:42:22;;;;;;;10.25;6.80;;;26.30;99.60;;;;;;7391398;19;20016;-83
2022/07/30 08:44:55;;;;;;;6.88;3.75;;;26.40;99.90;;;;;;7390775;19;20578;-84
2022/07/30 08:47:29;;;;;;;6.35;4.40;;;26.30;99.60;;;;;;7393712;19;20014;-84
2022/07/30 08:50:00;;;;;;;7.85;5.32;;;26.10;99.70;;;;;;7393587;19;20029;-83
2022/07/30 08:52:27;;;;;;;6.70;3.60;;;25.60;99.90;;;;;;7393926;19;20013;-84
2022/07/30 08:54:54;;;;;;;10.80;7.03;;;25.00;99.90;;;;;;7392987;19;20010;-84
2022/07/30 08:57:21;;;;;;;6.15;2.97;;;24.60;99.90;;;;;;7393416;19;20018;-84
2022/07/30 08:59:47;;;;;;;3.85;3.28;;;24.20;99.90;;;;;;7392712;19;20016;-83
2022/07/30 09:02:13;;;;;;;7.40;4.05;;;24.10;99.90;;;;;;7393226;19;20018;-85
2022/07/30 09:04:39;;;;;;;5.68;3.17;;;24.10;99.90;;;;;;7391732;19;20018;-83
2022/07/30 09:07:06;;;;;;;5.00;3.05;;;24.10;99.90;;;;;;7393682;19;20022;-84
2022/07/30 09:09:32;;;;;;;5.45;2.70;;;24.10;99.90;;;;;;7392960;19;20003;-84
2022/07/30 09:11:58;;;;;;;8.70;4.18;;;24.20;99.90;;;;;;7391302;19;20090;-85
2022/07/30 09:14:24;;;;;;;7.18;3.65;;;24.20;99.90;;;;;;7393334;19;20483;-84
2022/07/30 09:16:57;;;;;;;4.00;2.65;;;24.20;99.90;;;;;;7393282;19;20010;-84
2022/07/30 09:19:22;;;;;;;6.78;3.70;;;24.20;99.90;;;;;;7392020;19;20013;-85
2022/07/30 09:21:56;;;;;;;8.25;3.80;;;24.30;99.90;;;;;;7396029;19;20020;-85
2022/07/30 09:24:22;;;;;;;4.07;2.63;;;24.30;99.90;;;;;;7395286;19;20523;-82
2022/07/30 09:26:56;;;;;;;6.00;3.35;;;24.30;99.90;;;;;;7396042;19;20397;-84
2022/07/30 09:29:27;;;;;;;11.65;6.85;;;24.30;99.90;;;;;;7397488;19;20011;-85
2022/07/30 09:32:03;;;;;;;6.72;4.10;;;24.30;99.90;;;;;;7397225;19;20010;-84
2022/07/30 09:34:38;;;;;;;3.95;2.58;;;24.30;99.90;;;;;;7398376;19;20479;-84
2022/07/30 09:37:10;;;;;;;5.80;3.60;;;24.30;99.90;;;;;;7397629;19;20015;-85
2022/07/30 09:39:39;;;;;;;3.97;3.20;;;24.40;99.90;;;;;;7396060;19;20014;-84
2022/07/30 09:42:28;;;;;;;5.32;2.78;;;24.40;99.90;;;;;;7396592;19;20107;-85
2022/07/30 09:45:15;;;;;;;4.50;3.13;;;24.40;99.90;;;;;;7394496;19;20011;-84
2022/07/30 09:47:49;;;;;;;3.95;3.13;;;24.60;99.90;;;;;;7397304;19;20038;-86
2022/07/30 09:50:17;;;;;;;5.80;3.25;;;24.60;99.90;;;;;;7395550;19;20022;-85
2022/07/30 09:52:44;;;;;;;7.38;4.70;;;24.60;99.90;;;;;;7395308;19;20048;-84
2022/07/30 09:55:11;;;;;;;11.57;7.47;;;24.70;99.90;;;;;;7394580;19;20021;-84
2022/07/30 09:58:04;;;;;;;6.60;3.80;;;24.80;99.90;;;;;;7396662;19;20364;-85
2022/07/30 10:00:33;;;;;;;9.45;6.03;;;24.90;99.90;;;;;;7396200;19;20416;-84
2022/07/30 10:03:00;;;;;;;5.13;2.53;;;24.90;99.90;;;;;;7395197;19;20010;-85
2022/07/30 10:05:26;;;;;;;10.85;5.53;;;25.00;99.90;;;;;;7396479;19;20021;-83
2022/07/30 10:07:58;;;;;;;6.25;2.88;;;25.10;99.90;;;;;;7394671;19;20038;-85
2022/07/30 10:10:29;;;;;;;5.88;3.38;;;25.00;99.90;;;;;;7396020;19;20357;-84
2022/07/30 10:13:00;;;;;;;10.70;5.63;;;24.60;99.90;;;;;;7396175;19;20006;-84
2022/07/30 10:15:31;;;;;;;13.43;5.95;;;24.50;99.90;;;;;;7396343;19;20010;-84
2022/07/30 10:17:58;;;;;;;12.40;6.60;;;24.40;99.90;;;;;;7394626;19;20015;-84
2022/07/30 10:20:26;;;;;;;9.75;5.43;;;24.40;99.90;;;;;;7253355;19;2786364;-84
2022/07/30 10:22:52;;;;;;;6.00;3.08;;;24.40;99.90;;;;;;7398111;19;20015;-84
2022/07/30 10:25:20;;;;;;;4.55;3.28;;;24.30;99.90;;;;;;7398618;19;20034;-84
2022/07/30 10:27:49;;;;;;;6.72;4.03;;;24.20;99.90;;;;;;7396916;19;20006;-85
2022/07/30 10:30:18;;;;;;;7.95;3.83;;;24.00;99.90;;;;;;7396914;19;20010;-84
2022/07/30 10:32:45;;;;;;;6.97;2.88;;;24.00;99.90;;;;;;7396641;19;20014;-84
2022/07/30 10:35:12;;;;;;;8.30;5.03;;;24.20;99.90;;;;;;7401352;19;20013;-84
2022/07/30 10:37:47;;;;;;;8.55;4.45;;;24.40;99.90;;;;;;7398020;19;20006;-84
2022/07/30 10:40:37;;;;;;;4.15;2.20;;;24.70;99.90;;;;;;7398222;19;20006;-85
2022/07/30 10:43:22;;;;;;;7.25;4.47;;;24.90;99.90;;;;;;7396242;19;20014;-84
2022/07/30 10:46:25;;;;;;;5.38;3.20;;;25.10;99.90;;;;;;7398245;19;20018;-85
2022/07/30 10:48:51;;;;;;;6.18;3.15;;;25.10;99.90;;;;;;7398160;19;20007;-85
2022/07/30 10:51:17;;;;;;;5.30;2.70;;;25.20;99.90;;;;;;7397541;19;20015;-84
2022/07/30 10:53:48;;;;;;;9.38;4.55;;;25.40;99.90;;;;;;7397288;19;20022;-85
2022/07/30 10:56:22;;;;;;;6.18;3.45;;;25.50;99.90;;;;;;7397084;19;20078;-85
2022/07/30 10:59:06;;;;;;;4.85;2.47;;;25.60;99.90;;;;;;7397359;19;20042;-84
2022/07/30 11:01:47;;;;;;;5.55;3.00;;;25.60;99.90;;;;;;7397297;19;20015;-85
2022/07/30 11:04:17;;;;;;;4.53;2.55;;;25.60;99.90;;;;;;7395920;19;20366;-85
2022/07/30 11:06:43;;;;;;;4.82;2.50;;;25.30;99.90;;;;;;7397111;19;20349;-85
2022/07/30 11:09:39;;;;;;;4.20;2.50;;;25.30;99.90;;;;;;7395654;19;20486;-84
2022/07/30 11:12:06;;;;;;;4.28;2.50;;;25.50;99.90;;;;;;7397029;19;20014;-84
2022/07/30 11:14:46;;;;;;;3.75;2.63;;;25.60;99.90;;;;;;7396724;19;20085;-84
2022/07/30 11:17:17;;;;;;;4.75;2.75;;;25.60;99.70;;;;;;7396694;19;20021;-84
2022/07/30 11:20:09;;;;;;;5.65;2.53;;;25.60;99.70;;;;;;7395912;19;20026;-84
2022/07/30 11:22:39;;;;;;;4.63;2.30;;;25.60;99.50;;;;;;7395064;19;20031;-86
2022/07/30 11:25:29;;;;;;;6.13;3.05;;;25.60;99.50;;;;;;7393817;19;20018;-85
2022/07/30 11:27:56;;;;;;;7.03;3.15;;;25.50;99.90;;;;;;7395283;19;20379;-85
2022/07/30 11:30:24;;;;;;;3.63;2.28;;;25.60;99.50;;;;;;7396892;19;20485;-85
2022/07/30 11:32:55;;;;;;;9.88;3.85;;;25.60;99.40;;;;;;7397713;19;20014;-85
2022/07/30 11:35:29;;;;;;;7.00;2.85;;;25.60;99.40;;;;;;7394819;19;20062;-85
2022/07/30 11:38:05;;;;;;;4.93;3.08;;;25.50;99.40;;;;;;7395957;19;20082;-86
2022/07/30 11:40:40;;;;;;;7.10;3.30;;;25.60;99.20;;;;;;7396214;19;20526;-85
2022/07/30 11:43:28;;;;;;;6.07;3.50;;;25.60;98.80;;;;;;7392353;19;20014;-85
2022/07/30 11:46:18;;;;;;;5.85;2.95;;;25.60;99.00;;;;;;7395817;19;20019;-85
2022/07/30 11:49:07;;;;;;;4.50;2.40;;;25.70;99.10;;;;;;7395883;19;20038;-84
2022/07/30 11:51:44;;;;;;;4.43;2.15;;;25.80;99.00;;;;;;7395691;19;20010;-86
2022/07/30 11:54:10;;;;;;;5.22;2.85;;;25.50;99.10;;;;;;7395177;19;20337;-85
2022/07/30 11:56:46;;;;;;;5.30;2.28;;;25.30;99.40;;;;;;7395064;19;20018;-85
2022/07/30 11:59:12;;;;;;;8.52;3.60;;;25.60;99.40;;;;;;7395517;19;20402;-85
2022/07/30 12:01:37;;;;;;;8.02;3.22;;;25.80;98.50;;;;;;7395379;19;20500;-84
2022/07/30 12:04:05;;;;;;;4.18;2.40;;;25.90;98.30;;;;;;7394093;19;20010;-85
2022/07/30 12:06:31;;;;;;;5.25;2.22;;;26.00;98.60;;;;;;7393364;19;20499;-85
2022/07/30 12:08:58;;;;;;;8.02;3.25;;;25.90;98.50;;;;;;7395077;19;20015;-85
2022/07/30 12:11:31;;;;;;;4.88;2.70;;;25.70;98.20;;;;;;7393331;19;20483;-85
2022/07/30 12:14:00;;;;;;;3.95;2.25;;;25.60;98.30;;;;;;7395274;19;20007;-85
2022/07/30 12:16:28;;;;;;;4.70;2.40;;;25.50;98.80;;;;;;7394716;19;20034;-86
2022/07/30 12:18:54;;;;;;;6.45;2.72;;;25.40;99.00;;;;;;7394124;19;20017;-85
2022/07/30 12:21:23;;;;;;;4.82;2.47;;;25.60;98.40;;;;;;7392968;19;20033;-85
2022/07/30 12:24:08;;;;;;;4.03;2.42;;;25.60;98.60;;;;;;7393592;19;20010;-85
2022/07/30 12:26:34;;;;;;;9.10;3.75;;;25.60;97.60;;;;;;7394241;19;20062;-85
2022/07/30 12:29:04;;;;;;;6.10;2.78;;;25.70;97.90;;;;;;7394300;19;20372;-85
2022/07/30 12:31:30;;;;;;;6.35;2.58;;;25.80;98.10;;;;;;7394997;19;20480;-86
2022/07/30 12:33:56;;;;;;;4.50;2.15;;;26.00;98.10;;;;;;7394069;19;20022;-85
2022/07/30 12:36:34;;;;;;;4.05;2.00;;;25.80;98.40;;;;;;7394816;19;20018;-86
2022/07/30 12:39:03;;;;;;;4.18;2.40;;;25.60;98.30;;;;;;7394213;19;20010;-85
2022/07/30 12:41:47;;;;;;;6.80;3.10;;;25.60;98.50;;;;;;7392853;19;20002;-85
2022/07/30 12:44:32;;;;;;;3.45;2.15;;;25.90;97.50;;;;;;7392476;19;20531;-83
2022/07/30 12:46:58;;;;;;;6.20;2.17;;;26.10;97.90;;;;;;7392205;19;20014;-85
2022/07/30 12:49:29;;;;;;;4.65;2.40;;;26.00;97.70;;;;;;7393946;19;20031;-85
2022/07/30 12:51:55;;;;;;;5.65;2.55;;;25.80;97.70;;;;;;7393703;19;20492;-85